createdAt,value
2023-04-11T00:00:49.345Z,9.19
2023-04-11T00:04:57.384Z,9.08
2023-04-11T00:09:05.798Z,10.14
2023-04-11T00:13:13.980Z,9.85
2023-04-11T00:16:42.706Z,9.36
2023-04-11T00:20:50.889Z,8.92
2023-04-11T00:24:49.255Z,8.78
2023-04-11T00:28:57.460Z,9.97
2023-04-11T00:33:05.825Z,9.72
2023-04-11T00:37:03.815Z,9.17
2023-04-11T00:40:55.776Z,8.62
2023-04-11T00:45:03.924Z,8.33
2023-04-11T00:49:11.725Z,9.43
2023-04-11T00:53:20.929Z,9.26
2023-04-11T00:57:10.216Z,8.74
2023-04-11T01:01:18.379Z,8.20
2023-04-11T01:04:59.415Z,7.93
2023-04-11T01:08:40.023Z,8.98
2023-04-11T01:12:29.018Z,8.96
2023-04-11T01:16:21.338Z,8.51
2023-04-11T01:20:30.867Z,8.00
2023-04-11T01:24:32.094Z,7.79
2023-04-11T01:28:33.808Z,8.81
2023-04-11T01:32:06.338Z,8.64
2023-04-11T01:36:15.512Z,8.20
2023-04-11T01:40:24.668Z,7.74
2023-04-11T01:44:32.785Z,7.60
2023-04-11T01:48:41.169Z,8.79
2023-04-11T01:52:50.773Z,8.70
2023-04-11T01:56:58.851Z,8.22
2023-04-11T02:00:45.220Z,7.74
2023-04-11T02:04:53.415Z,7.56
2023-04-11T02:09:01.607Z,8.65
2023-04-11T02:12:59.152Z,8.55
2023-04-11T02:16:41.686Z,8.12
2023-04-11T02:20:50.806Z,7.65
2023-04-11T02:24:41.910Z,7.42
2023-04-11T02:28:40.268Z,8.54
2023-04-11T02:32:45.437Z,8.36
2023-04-11T02:36:38.192Z,7.81
2023-04-11T02:40:07.266Z,7.44
2023-04-11T02:43:57.297Z,7.15
2023-04-11T02:48:06.577Z,8.12
2023-04-11T02:51:56.877Z,7.93
2023-04-11T02:55:33.254Z,7.40
2023-04-11T02:59:20.739Z,6.89
2023-04-11T03:03:17.589Z,6.58
2023-04-11T03:06:27.075Z,7.64
2023-04-11T03:10:20.626Z,7.60
2023-04-11T03:14:28.694Z,7.12
2023-04-11T03:18:03.015Z,6.69
2023-04-11T03:22:12.200Z,6.44
2023-04-11T03:26:20.545Z,7.53
2023-04-11T03:30:28.656Z,7.36
2023-04-11T03:34:18.410Z,6.80
2023-04-11T03:38:26.259Z,6.36
2023-04-11T03:42:34.372Z,6.30
2023-04-11T03:46:22.616Z,7.52
2023-04-11T03:50:13.594Z,7.49
2023-04-11T03:54:20.335Z,7.11
2023-04-11T03:57:52.014Z,6.72
2023-04-11T04:01:09.966Z,6.51
2023-04-11T04:05:08.021Z,7.64
2023-04-11T04:09:06.000Z,8.03
2023-04-11T04:12:09.963Z,7.73
2023-04-11T04:15:43.014Z,7.37
2023-04-11T04:19:04.450Z,7.09
2023-04-11T04:21:42.035Z,8.00
2023-04-11T04:25:39.315Z,8.48
2023-04-11T04:28:39.868Z,8.26
2023-04-11T04:32:01.757Z,7.94
2023-04-11T04:35:10.622Z,7.62
2023-04-11T04:38:28.590Z,7.38
2023-04-11T04:41:41.689Z,8.44
2023-04-11T04:45:44.757Z,8.75
2023-04-11T04:48:43.243Z,8.51
2023-04-11T04:51:41.752Z,8.21
2023-04-11T04:55:14.746Z,7.77
2023-04-11T04:58:13.932Z,7.52
2023-04-11T05:01:18.158Z,8.36
2023-04-11T05:04:13.553Z,8.99
2023-04-11T05:07:15.756Z,8.88
2023-04-11T05:10:33.044Z,8.64
2023-04-11T05:13:20.758Z,8.38
2023-04-11T05:17:08.882Z,8.21
2023-04-11T05:19:49.373Z,9.31
2023-04-11T05:22:50.408Z,9.73
2023-04-11T05:25:59.050Z,9.59
2023-04-11T05:28:35.955Z,9.31
2023-04-11T05:31:57.137Z,8.98
2023-04-11T05:35:18.376Z,8.81
2023-04-11T05:38:17.815Z,9.84
2023-04-11T05:41:15.758Z,10.41
2023-04-11T05:43:46.112Z,10.33
2023-04-11T05:46:28.392Z,10.14
2023-04-11T05:53:13.964Z,8.76
2023-04-11T05:55:50.188Z,9.64
2023-04-11T05:58:17.664Z,10.26
2023-04-11T06:00:56.368Z,10.36
2023-04-11T06:03:29.671Z,10.22
2023-04-11T06:06:09.790Z,10.00
2023-04-11T06:08:49.474Z,9.79
2023-04-11T06:11:16.663Z,9.59
2023-04-11T06:13:51.004Z,10.22
2023-04-11T06:16:18.196Z,10.81
2023-04-11T06:18:45.424Z,10.91
2023-04-11T06:21:12.473Z,10.82
2023-04-11T06:23:40.755Z,10.70
2023-04-11T06:26:09.738Z,10.65
2023-04-11T06:28:40.191Z,10.65
2023-04-11T06:31:09.781Z,11.43
2023-04-11T06:33:38.459Z,12.43
2023-04-11T06:36:06.353Z,13.29
2023-04-11T06:38:35.055Z,13.65
2023-04-11T06:41:02.082Z,13.93
2023-04-11T06:43:30.633Z,14.37
2023-04-11T06:45:58.298Z,14.88
2023-04-11T06:48:26.457Z,15.30
2023-04-11T06:50:53.616Z,16.24
2023-04-11T06:53:21.539Z,17.22
2023-04-11T06:55:49.791Z,17.44
2023-04-11T06:58:17.053Z,17.32
2023-04-11T07:00:44.251Z,17.30
2023-04-11T07:03:12.540Z,17.70
2023-04-11T07:05:39.766Z,18.37
2023-04-11T07:08:14.923Z,18.78
2023-04-11T07:10:45.066Z,19.00
2023-04-11T07:13:12.189Z,19.23
2023-04-11T07:15:40.514Z,19.46
2023-04-11T07:18:08.948Z,19.75
2023-04-11T07:20:36.504Z,20.12
2023-04-11T07:23:04.422Z,20.45
2023-04-11T07:25:33.707Z,20.77
2023-04-11T07:28:01.020Z,20.97
2023-04-11T07:30:28.635Z,21.40
2023-04-11T07:33:03.280Z,21.97
2023-04-11T07:35:34.652Z,22.15
2023-04-11T07:38:01.989Z,21.84
2023-04-11T07:40:29.517Z,21.60
2023-04-11T07:42:58.559Z,21.57
2023-04-11T07:45:26.136Z,21.67
2023-04-11T07:47:56.215Z,21.87
2023-04-11T07:50:23.294Z,22.34
2023-04-11T07:52:51.388Z,22.63
2023-04-11T07:55:18.724Z,22.92
2023-04-11T07:57:45.990Z,22.90
2023-04-11T08:00:20.472Z,22.97
2023-04-11T08:02:52.881Z,22.98
2023-04-11T08:05:20.251Z,23.19
2023-04-11T08:07:51.511Z,23.42
2023-04-11T08:10:19.999Z,23.41
2023-04-11T08:12:47.293Z,23.13
2023-04-11T08:17:29.297Z,21.33
2023-04-11T08:20:22.988Z,21.60
2023-04-11T08:22:56.169Z,21.44
2023-04-11T08:25:27.130Z,21.68
2023-04-11T08:27:54.923Z,22.28
2023-04-11T08:30:30.516Z,23.05
2023-04-11T08:33:35.290Z,23.08
2023-04-11T08:36:09.951Z,22.68
2023-04-11T08:38:41.874Z,22.54
2023-04-11T08:41:19.010Z,22.13
2023-04-11T08:43:50.356Z,21.55
2023-04-11T08:46:18.524Z,20.82
2023-04-11T08:48:51.220Z,19.98
2023-04-11T08:51:26.832Z,19.62
2023-04-11T08:53:58.192Z,19.86
2023-04-11T08:56:26.925Z,20.50
2023-04-11T08:58:58.031Z,20.44
2023-04-11T09:01:32.657Z,20.30
2023-04-11T09:04:01.307Z,19.93
2023-04-11T09:06:37.091Z,19.39
2023-04-11T09:09:14.958Z,18.98
2023-04-11T09:12:06.012Z,19.05
2023-04-11T09:14:37.946Z,19.55
2023-04-11T09:17:24.690Z,19.99
2023-04-11T09:20:14.047Z,20.73
2023-04-11T09:23:29.686Z,21.15
2023-04-11T09:25:57.044Z,20.76
2023-04-11T09:28:50.709Z,20.29
2023-04-11T09:31:21.805Z,20.07
2023-04-11T09:34:28.890Z,19.64
2023-04-11T09:37:04.441Z,19.55
2023-04-11T09:39:40.801Z,19.53
2023-04-11T09:42:36.598Z,19.33
2023-04-11T09:45:04.544Z,18.84
2023-04-11T09:47:36.785Z,18.82
2023-04-11T09:50:07.320Z,19.23
2023-04-11T09:52:34.904Z,19.46
2023-04-11T09:55:45.111Z,19.15
2023-04-11T09:58:38.120Z,19.13
2023-04-11T10:01:19.166Z,18.96
2023-04-11T10:03:51.165Z,18.92
2023-04-11T10:06:47.130Z,18.79
2023-04-11T10:09:14.426Z,18.90
2023-04-11T10:12:30.050Z,18.50
2023-04-11T10:15:16.545Z,18.96
2023-04-11T10:18:11.653Z,19.47
2023-04-11T10:20:44.921Z,19.76
2023-04-11T10:23:52.371Z,19.88
2023-04-11T10:26:57.836Z,19.42
2023-04-11T10:29:54.583Z,19.92
2023-04-11T10:32:26.925Z,20.32
2023-04-11T10:34:57.753Z,20.43
2023-04-11T10:37:48.350Z,20.63
2023-04-11T10:40:15.713Z,20.74
2023-04-11T10:42:44.858Z,20.26
2023-04-11T10:45:24.645Z,20.43
2023-04-11T10:48:07.660Z,20.75
2023-04-11T10:50:50.713Z,20.78
2023-04-11T10:53:41.941Z,20.73
2023-04-11T10:56:14.630Z,20.57
2023-04-11T10:58:43.372Z,19.90
2023-04-11T11:01:31.778Z,19.16
2023-04-11T11:04:05.119Z,18.68
2023-04-11T11:06:38.054Z,18.41
2023-04-11T11:09:23.711Z,18.03
2023-04-11T11:12:13.935Z,17.96
2023-04-11T11:14:47.216Z,17.87
2023-04-11T11:17:23.807Z,17.54
2023-04-11T11:19:52.433Z,17.81
2023-04-11T11:22:26.177Z,17.92
2023-04-11T11:25:14.809Z,17.80
2023-04-11T11:27:45.567Z,17.90
2023-04-11T11:30:14.414Z,17.66
2023-04-11T11:32:45.340Z,17.55
2023-04-11T11:35:19.107Z,17.38
2023-04-11T11:37:52.614Z,17.26
2023-04-11T11:40:24.625Z,17.28
2023-04-11T11:42:51.916Z,16.94
2023-04-11T11:45:22.718Z,16.57
2023-04-11T11:47:57.511Z,16.63
2023-04-11T11:50:33.850Z,16.75
2023-04-11T11:53:20.281Z,16.82
2023-04-11T11:55:50.527Z,16.95
2023-04-11T11:58:27.452Z,17.10
2023-04-11T12:00:58.127Z,17.19
2023-04-11T12:03:25.647Z,17.07
2023-04-11T12:05:59.760Z,16.96
2023-04-11T12:08:27.296Z,17.05
2023-04-11T12:10:54.602Z,17.14
2023-04-11T12:13:40.156Z,17.34
2023-04-11T12:16:14.210Z,17.28
2023-04-11T12:18:45.202Z,17.29
2023-04-11T12:21:13.065Z,17.30
2023-04-11T12:23:40.289Z,17.28
2023-04-11T12:26:10.511Z,17.33
2023-04-11T12:28:37.949Z,17.37
2023-04-11T12:31:05.644Z,17.67
2023-04-11T12:33:37.228Z,17.86
2023-04-11T12:36:13.338Z,17.99
2023-04-11T12:38:42.848Z,18.09
2023-04-11T12:41:31.009Z,18.37
2023-04-11T12:50:12.886Z,18.13
2023-04-11T12:52:40.740Z,18.96
2023-04-11T12:55:11.213Z,19.15
2023-04-11T12:57:39.948Z,19.20
2023-04-11T13:00:22.967Z,19.41
2023-04-11T13:06:29.214Z,19.13
2023-04-11T13:12:32.719Z,19.78
2023-04-11T13:45:05.203Z,18.49
2023-04-11T13:50:42.863Z,18.62
2023-04-11T13:53:20.742Z,19.00
2023-04-11T13:57:26.681Z,18.19
2023-04-11T13:59:59.238Z,18.23
2023-04-11T14:02:39.074Z,18.03
2023-04-11T14:05:15.716Z,18.14
2023-04-11T14:07:49.630Z,18.13
2023-04-11T14:10:20.349Z,18.28
2023-04-11T14:13:06.828Z,18.10
2023-04-11T14:15:36.839Z,18.13
2023-04-11T14:18:06.605Z,18.24
2023-04-11T14:20:38.252Z,18.01
2023-04-11T14:23:13.508Z,17.81
2023-04-11T14:26:00.804Z,17.89
2023-04-11T14:28:35.004Z,17.53
2023-04-11T14:31:05.698Z,17.53
2023-04-11T14:33:47.956Z,17.36
2023-04-11T14:36:15.776Z,17.36
2023-04-11T14:38:52.170Z,17.54
2023-04-11T14:41:27.163Z,17.61
2023-04-11T14:44:00.643Z,17.52
2023-04-11T14:46:28.499Z,17.52
2023-04-11T14:48:58.881Z,17.51
2023-04-11T14:51:29.036Z,17.48
2023-04-11T14:54:13.168Z,17.21
2023-04-11T14:57:11.220Z,17.05
2023-04-11T14:59:46.398Z,16.87
2023-04-11T15:02:21.634Z,16.79
2023-04-11T15:05:39.358Z,16.70
2023-04-11T15:08:10.417Z,16.59
2023-04-11T15:10:58.612Z,16.59
2023-04-11T15:13:48.423Z,16.61
2023-04-11T15:16:17.938Z,16.61
2023-04-11T15:18:55.789Z,16.45
2023-04-11T15:21:34.012Z,16.49
2023-04-11T15:24:07.905Z,16.64
2023-04-11T15:26:35.076Z,16.70
2023-04-11T15:29:24.388Z,16.58
2023-04-11T15:31:51.735Z,16.65
2023-04-11T15:34:27.974Z,16.79
2023-04-11T15:36:59.794Z,16.71
2023-04-11T15:39:27.258Z,16.44
2023-04-11T15:41:57.375Z,16.48
2023-04-11T15:44:24.632Z,16.56
2023-04-11T15:46:54.178Z,16.50
2023-04-11T15:49:23.891Z,16.46
2023-04-11T15:51:57.500Z,16.43
2023-04-11T15:54:38.725Z,16.40
2023-04-11T15:57:29.376Z,16.34
2023-04-11T15:59:56.852Z,16.30
2023-04-11T16:02:24.631Z,16.28
2023-04-11T16:07:35.004Z,16.19
2023-04-11T16:10:02.867Z,16.11
2023-04-11T16:12:43.580Z,16.07
2023-04-11T16:15:14.684Z,16.03
2023-04-11T16:17:50.428Z,15.98
2023-04-11T16:20:21.320Z,15.95
2023-04-11T16:22:51.329Z,15.91
2023-04-11T16:25:29.766Z,15.85
2023-04-11T16:28:07.450Z,15.73
2023-04-11T16:30:37.031Z,15.58
2023-04-11T16:33:07.506Z,15.50
2023-04-11T16:35:35.607Z,15.45
2023-04-11T16:38:03.504Z,15.41
2023-04-11T16:40:38.944Z,15.32
2023-04-11T16:43:06.495Z,15.24
2023-04-11T16:45:34.790Z,15.18
2023-04-11T16:48:02.302Z,15.14
2023-04-11T16:50:29.725Z,15.12
2023-04-11T16:53:00.632Z,15.07
2023-04-11T16:55:27.968Z,15.00
2023-04-11T16:57:58.104Z,14.96
2023-04-11T17:00:49.421Z,14.91
2023-04-11T17:03:18.230Z,14.88
2023-04-11T17:05:46.023Z,14.86
2023-04-11T17:08:45.747Z,14.80
2023-04-11T17:11:33.245Z,14.76
2023-04-11T17:14:03.344Z,14.73
2023-04-11T17:16:39.981Z,14.71
2023-04-11T17:19:10.560Z,14.68
2023-04-11T17:21:46.673Z,14.69
2023-04-11T17:24:17.562Z,14.69
2023-04-11T17:26:55.949Z,14.66
2023-04-11T17:29:26.408Z,14.55
2023-04-11T17:31:56.106Z,14.54
2023-04-11T17:34:23.986Z,14.48
2023-04-11T17:36:52.705Z,14.48
2023-04-11T17:39:22.970Z,14.40
2023-04-11T17:42:01.439Z,14.36
2023-04-11T17:44:28.932Z,14.27
2023-04-11T17:46:59.320Z,14.23
2023-04-11T17:49:39.378Z,14.23
2023-04-11T17:52:06.393Z,14.11
2023-04-11T17:54:52.912Z,13.96
2023-04-11T17:57:38.708Z,14.08
2023-04-11T18:00:27.206Z,14.16
2023-04-11T18:02:58.800Z,14.14
2023-04-11T18:05:49.890Z,14.14
2023-04-11T18:08:39.217Z,14.09
2023-04-11T18:11:34.096Z,14.06
2023-04-11T18:14:04.653Z,13.88
2023-04-11T18:16:36.310Z,13.88
2023-04-11T18:19:29.521Z,13.80
2023-04-11T18:22:04.787Z,13.79
2023-04-11T18:24:36.369Z,13.69
2023-04-11T18:27:06.538Z,13.48
2023-04-11T18:29:33.583Z,12.89
2023-04-11T18:32:00.828Z,12.78
2023-04-11T18:34:31.225Z,13.41
2023-04-11T18:37:27.156Z,13.82
2023-04-11T18:39:54.310Z,13.88
2023-04-11T18:42:21.701Z,13.72
2023-04-11T18:44:52.322Z,13.38
2023-04-11T18:47:19.941Z,13.01
2023-04-11T18:49:47.183Z,12.68
2023-04-11T18:52:14.276Z,13.11
2023-04-11T18:54:45.234Z,13.42
2023-04-11T18:57:14.786Z,13.09
2023-04-11T19:00:17.529Z,12.57
2023-04-11T19:02:50.927Z,12.10
2023-04-11T19:05:25.585Z,11.92
2023-04-11T19:07:52.964Z,12.54
2023-04-11T19:10:28.446Z,12.74
2023-04-11T19:12:56.941Z,12.65
2023-04-11T19:15:39.536Z,12.41
2023-04-11T19:18:10.643Z,12.12
2023-04-11T19:20:54.589Z,11.78
2023-04-11T19:23:37.114Z,12.48
2023-04-11T19:26:04.992Z,12.88
2023-04-11T19:28:40.078Z,12.90
2023-04-11T19:31:08.710Z,12.67
2023-04-11T19:33:38.922Z,12.40
2023-04-11T19:36:09.627Z,12.13
2023-04-11T19:38:39.775Z,11.84
2023-04-11T19:41:16.378Z,12.30
2023-04-11T19:43:44.416Z,12.89
2023-04-11T19:46:12.577Z,12.82
2023-04-11T19:48:40.301Z,12.56
2023-04-11T19:51:11.588Z,12.31
2023-04-11T19:53:44.394Z,12.01
2023-04-11T19:56:11.908Z,12.36
2023-04-11T19:58:43.577Z,12.86
2023-04-11T20:01:13.895Z,12.83
2023-04-11T20:03:43.389Z,12.56
2023-04-11T20:06:12.543Z,12.29
2023-04-11T20:08:55.212Z,12.02
2023-04-11T20:11:25.898Z,11.74
2023-04-11T20:14:42.634Z,12.28
2023-04-11T20:17:16.033Z,12.68
2023-04-11T20:19:59.421Z,12.41
2023-04-11T20:22:29.956Z,12.10
2023-04-11T20:25:18.425Z,11.82
2023-04-11T20:27:55.103Z,11.58
2023-04-11T20:30:54.002Z,12.38
2023-04-11T20:33:48.147Z,12.85
2023-04-11T20:36:40.481Z,12.77
2023-04-11T20:39:08.228Z,12.49
2023-04-11T20:41:50.014Z,12.25
2023-04-11T20:44:22.229Z,12.00
2023-04-11T20:47:19.807Z,12.66
2023-04-11T20:49:56.170Z,13.13
2023-04-11T20:52:53.908Z,13.08
2023-04-11T20:56:14.877Z,12.73
2023-04-11T20:58:42.820Z,12.38
2023-04-11T21:01:44.522Z,12.04
2023-04-11T21:05:31.611Z,12.72
2023-04-11T21:09:25.519Z,13.14
2023-04-11T21:13:12.532Z,12.81
2023-04-11T21:16:24.650Z,12.35
2023-04-11T21:20:10.453Z,11.99
2023-04-11T21:24:19.598Z,11.85
2023-04-11T21:27:52.439Z,13.01
2023-04-11T21:31:30.508Z,13.03
2023-04-11T21:34:49.919Z,12.70
2023-04-11T21:37:55.478Z,12.29
2023-04-11T21:40:55.804Z,11.96
2023-04-11T21:44:23.711Z,11.75
2023-04-11T21:47:15.241Z,12.72
2023-04-11T21:50:34.515Z,13.04
2023-04-11T21:54:27.795Z,12.81
2023-04-11T21:58:36.031Z,12.33
2023-04-11T22:02:37.352Z,11.91
2023-04-11T22:05:45.689Z,11.78
2023-04-11T22:09:01.327Z,12.88
2023-04-11T22:12:21.278Z,13.12
2023-04-11T22:15:55.733Z,12.85
2023-04-11T22:19:01.232Z,12.52
2023-04-11T22:22:08.249Z,12.17
2023-04-11T22:25:32.173Z,11.92
2023-04-11T22:28:27.693Z,12.84
2023-04-11T22:31:23.790Z,13.27
2023-04-11T22:33:54.579Z,13.11
2023-04-11T22:36:46.778Z,12.82
2023-04-11T22:40:22.001Z,12.47
2023-04-11T22:43:49.746Z,12.14
2023-04-11T22:47:34.352Z,11.94
2023-04-11T22:50:24.160Z,13.03
2023-04-11T22:53:42.111Z,13.28
2023-04-11T22:57:05.249Z,13.03
2023-04-11T23:00:24.191Z,12.65
2023-04-11T23:04:03.429Z,12.24
2023-04-11T23:07:53.759Z,12.03
2023-04-11T23:11:36.408Z,13.14
2023-04-11T23:15:34.680Z,13.10
2023-04-11T23:19:42.758Z,12.67
2023-04-11T23:23:25.095Z,12.27
2023-04-11T23:27:14.416Z,12.09
2023-04-11T23:30:29.925Z,13.13
2023-04-11T23:34:30.693Z,13.18
2023-04-11T23:38:14.086Z,12.77
2023-04-11T23:42:15.006Z,12.32
2023-04-11T23:46:04.860Z,11.91
2023-04-11T23:50:15.001Z,11.84
2023-04-11T23:54:24.050Z,13.05
2023-04-11T23:58:07.590Z,12.99
